sensor_id;sensor_type;location;lat;lon;timestamp;P1;durP1;ratioP1;P2;durP2;ratioP2
16820;SDS011;8527;49.740;6.604;2023-05-07T00:02:16;2.67;;;2.10;;
16820;SDS011;8527;49.740;6.604;2023-05-07T00:07:14;2.13;;;1.90;;
16820;SDS011;8527;49.740;6.604;2023-05-07T00:12:13;2.72;;;1.92;;
16820;SDS011;8527;49.740;6.604;2023-05-07T00:17:11;3.38;;;2.13;;
16820;SDS011;8527;49.740;6.604;2023-05-07T00:22:12;3.00;;;2.03;;
16820;SDS011;8527;49.740;6.604;2023-05-07T00:27:10;2.58;;;2.20;;
16820;SDS011;8527;49.740;6.604;2023-05-07T00:32:11;2.55;;;1.92;;
16820;SDS011;8527;49.740;6.604;2023-05-07T00:37:14;3.17;;;2.08;;
16820;SDS011;8527;49.740;6.604;2023-05-07T00:42:13;4.82;;;1.95;;
16820;SDS011;8527;49.740;6.604;2023-05-07T00:47:11;2.35;;;1.90;;
16820;SDS011;8527;49.740;6.604;2023-05-07T00:52:11;1.90;;;1.80;;
16820;SDS011;8527;49.740;6.604;2023-05-07T00:57:18;2.45;;;2.22;;
16820;SDS011;8527;49.740;6.604;2023-05-07T01:02:18;3.10;;;2.03;;
16820;SDS011;8527;49.740;6.604;2023-05-07T01:07:20;2.35;;;2.10;;
16820;SDS011;8527;49.740;6.604;2023-05-07T01:12:21;2.53;;;2.25;;
16820;SDS011;8527;49.740;6.604;2023-05-07T01:17:20;2.13;;;1.73;;
16820;SDS011;8527;49.740;6.604;2023-05-07T01:22:29;2.20;;;1.70;;
16820;SDS011;8527;49.740;6.604;2023-05-07T01:27:28;3.08;;;2.10;;
16820;SDS011;8527;49.740;6.604;2023-05-07T01:32:31;2.58;;;2.00;;
16820;SDS011;8527;49.740;6.604;2023-05-07T01:37:36;2.72;;;1.88;;
16820;SDS011;8527;49.740;6.604;2023-05-07T01:42:36;1.65;;;1.55;;
16820;SDS011;8527;49.740;6.604;2023-05-07T01:47:35;2.67;;;1.90;;
16820;SDS011;8527;49.740;6.604;2023-05-07T01:52:38;2.40;;;1.73;;
16820;SDS011;8527;49.740;6.604;2023-05-07T01:57:48;4.88;;;2.05;;
16820;SDS011;8527;49.740;6.604;2023-05-07T02:02:47;5.38;;;2.00;;
16820;SDS011;8527;49.740;6.604;2023-05-07T02:07:47;2.22;;;2.03;;
16820;SDS011;8527;49.740;6.604;2023-05-07T02:12:49;2.67;;;1.90;;
16820;SDS011;8527;49.740;6.604;2023-05-07T02:23:07;3.08;;;1.70;;
16820;SDS011;8527;49.740;6.604;2023-05-07T02:28:05;2.88;;;1.90;;
16820;SDS011;8527;49.740;6.604;2023-05-07T02:33:10;2.10;;;1.63;;
16820;SDS011;8527;49.740;6.604;2023-05-07T02:38:17;2.78;;;2.25;;
16820;SDS011;8527;49.740;6.604;2023-05-07T02:43:15;3.25;;;2.10;;
16820;SDS011;8527;49.740;6.604;2023-05-07T02:48:14;2.83;;;1.83;;
16820;SDS011;8527;49.740;6.604;2023-05-07T02:53:12;2.67;;;1.83;;
16820;SDS011;8527;49.740;6.604;2023-05-07T02:58:16;2.20;;;2.00;;
16820;SDS011;8527;49.740;6.604;2023-05-07T03:03:14;5.57;;;2.13;;
16820;SDS011;8527;49.740;6.604;2023-05-07T03:08:13;2.47;;;1.98;;
16820;SDS011;8527;49.740;6.604;2023-05-07T03:13:12;3.25;;;1.83;;
16820;SDS011;8527;49.740;6.604;2023-05-07T03:18:15;2.53;;;2.05;;
16820;SDS011;8527;49.740;6.604;2023-05-07T03:23:14;5.03;;;2.25;;
16820;SDS011;8527;49.740;6.604;2023-05-07T03:28:12;3.17;;;2.10;;
16820;SDS011;8527;49.740;6.604;2023-05-07T03:33:16;2.75;;;2.13;;
16820;SDS011;8527;49.740;6.604;2023-05-07T03:38:19;2.25;;;2.15;;
16820;SDS011;8527;49.740;6.604;2023-05-07T03:43:18;2.72;;;2.33;;
16820;SDS011;8527;49.740;6.604;2023-05-07T03:48:21;2.28;;;2.08;;
16820;SDS011;8527;49.740;6.604;2023-05-07T03:53:20;7.63;;;2.30;;
16820;SDS011;8527;49.740;6.604;2023-05-07T03:58:26;2.25;;;2.08;;
16820;SDS011;8527;49.740;6.604;2023-05-07T04:03:27;2.78;;;2.15;;
16820;SDS011;8527;49.740;6.604;2023-05-07T04:08:26;3.00;;;2.38;;
16820;SDS011;8527;49.740;6.604;2023-05-07T04:13:27;7.30;;;3.00;;
16820;SDS011;8527;49.740;6.604;2023-05-07T04:18:29;2.80;;;2.50;;
16820;SDS011;8527;49.740;6.604;2023-05-07T04:23:28;3.92;;;2.17;;
16820;SDS011;8527;49.740;6.604;2023-05-07T04:28:29;2.22;;;1.90;;
16820;SDS011;8527;49.740;6.604;2023-05-07T04:33:32;2.65;;;2.30;;
16820;SDS011;8527;49.740;6.604;2023-05-07T04:38:31;5.47;;;3.63;;
16820;SDS011;8527;49.740;6.604;2023-05-07T04:43:32;3.10;;;2.80;;
16820;SDS011;8527;49.740;6.604;2023-05-07T04:48:36;5.22;;;3.10;;
16820;SDS011;8527;49.740;6.604;2023-05-07T04:53:37;3.90;;;2.80;;
16820;SDS011;8527;49.740;6.604;2023-05-07T04:58:38;5.10;;;2.45;;
16820;SDS011;8527;49.740;6.604;2023-05-07T05:03:42;2.28;;;2.08;;
16820;SDS011;8527;49.740;6.604;2023-05-07T05:08:41;2.40;;;2.20;;
16820;SDS011;8527;49.740;6.604;2023-05-07T05:13:39;3.38;;;2.67;;
16820;SDS011;8527;49.740;6.604;2023-05-07T05:18:46;3.90;;;2.45;;
16820;SDS011;8527;49.740;6.604;2023-05-07T05:23:49;4.70;;;3.20;;
16820;SDS011;8527;49.740;6.604;2023-05-07T05:28:48;4.13;;;2.88;;
16820;SDS011;8527;49.740;6.604;2023-05-07T05:33:52;4.90;;;3.00;;
16820;SDS011;8527;49.740;6.604;2023-05-07T05:38:53;3.95;;;2.60;;
16820;SDS011;8527;49.740;6.604;2023-05-07T05:43:54;4.43;;;3.58;;
16820;SDS011;8527;49.740;6.604;2023-05-07T05:48:56;3.50;;;2.90;;
16820;SDS011;8527;49.740;6.604;2023-05-07T05:53:57;4.85;;;3.00;;
16820;SDS011;8527;49.740;6.604;2023-05-07T05:58:55;3.47;;;2.78;;
16820;SDS011;8527;49.740;6.604;2023-05-07T06:03:56;4.03;;;2.70;;
16820;SDS011;8527;49.740;6.604;2023-05-07T06:08:54;4.22;;;2.80;;
16820;SDS011;8527;49.740;6.604;2023-05-07T06:13:53;4.15;;;3.00;;
16820;SDS011;8527;49.740;6.604;2023-05-07T06:18:51;5.38;;;3.17;;
16820;SDS011;8527;49.740;6.604;2023-05-07T06:23:52;7.22;;;3.13;;
16820;SDS011;8527;49.740;6.604;2023-05-07T06:28:53;4.18;;;2.85;;
16820;SDS011;8527;49.740;6.604;2023-05-07T06:33:52;3.42;;;3.13;;
16820;SDS011;8527;49.740;6.604;2023-05-07T06:38:53;4.30;;;3.15;;
16820;SDS011;8527;49.740;6.604;2023-05-07T06:43:51;5.45;;;3.42;;
16820;SDS011;8527;49.740;6.604;2023-05-07T06:48:49;3.95;;;3.20;;
16820;SDS011;8527;49.740;6.604;2023-05-07T06:53:48;6.22;;;2.90;;
16820;SDS011;8527;49.740;6.604;2023-05-07T06:58:49;3.47;;;2.92;;
16820;SDS011;8527;49.740;6.604;2023-05-07T07:03:47;3.95;;;2.65;;
16820;SDS011;8527;49.740;6.604;2023-05-07T07:08:46;4.72;;;2.90;;
16820;SDS011;8527;49.740;6.604;2023-05-07T07:13:44;4.68;;;3.00;;
16820;SDS011;8527;49.740;6.604;2023-05-07T07:18:45;4.45;;;3.00;;
16820;SDS011;8527;49.740;6.604;2023-05-07T07:23:44;5.50;;;2.75;;
16820;SDS011;8527;49.740;6.604;2023-05-07T07:28:42;6.53;;;2.70;;
16820;SDS011;8527;49.740;6.604;2023-05-07T07:33:41;5.05;;;2.72;;
16820;SDS011;8527;49.740;6.604;2023-05-07T07:38:45;3.33;;;2.83;;
16820;SDS011;8527;49.740;6.604;2023-05-07T07:43:43;3.83;;;2.67;;
16820;SDS011;8527;49.740;6.604;2023-05-07T07:48:41;2.83;;;2.60;;
16820;SDS011;8527;49.740;6.604;2023-05-07T07:53:40;4.70;;;2.90;;
16820;SDS011;8527;49.740;6.604;2023-05-07T07:58:41;4.22;;;2.80;;
16820;SDS011;8527;49.740;6.604;2023-05-07T08:03:40;4.20;;;2.97;;
16820;SDS011;8527;49.740;6.604;2023-05-07T08:08:41;4.35;;;3.00;;
16820;SDS011;8527;49.740;6.604;2023-05-07T08:13:42;2.80;;;2.60;;
16820;SDS011;8527;49.740;6.604;2023-05-07T08:18:41;4.78;;;2.88;;
16820;SDS011;8527;49.740;6.604;2023-05-07T08:23:39;2.97;;;2.45;;
16820;SDS011;8527;49.740;6.604;2023-05-07T08:28:38;6.53;;;2.78;;
16820;SDS011;8527;49.740;6.604;2023-05-07T08:33:39;3.05;;;2.58;;
16820;SDS011;8527;49.740;6.604;2023-05-07T08:38:43;5.05;;;2.80;;
16820;SDS011;8527;49.740;6.604;2023-05-07T08:43:42;2.88;;;2.30;;
16820;SDS011;8527;49.740;6.604;2023-05-07T08:48:51;4.82;;;2.70;;
16820;SDS011;8527;49.740;6.604;2023-05-07T08:53:50;7.22;;;2.45;;
16820;SDS011;8527;49.740;6.604;2023-05-07T08:58:48;3.60;;;2.35;;
16820;SDS011;8527;49.740;6.604;2023-05-07T09:03:54;3.70;;;2.50;;
16820;SDS011;8527;49.740;6.604;2023-05-07T09:08:53;5.05;;;2.50;;
16820;SDS011;8527;49.740;6.604;2023-05-07T09:13:53;4.75;;;2.65;;
16820;SDS011;8527;49.740;6.604;2023-05-07T09:18:56;3.58;;;2.20;;
16820;SDS011;8527;49.740;6.604;2023-05-07T09:23:56;6.45;;;2.42;;
16820;SDS011;8527;49.740;6.604;2023-05-07T09:28:54;4.32;;;2.70;;
16820;SDS011;8527;49.740;6.604;2023-05-07T09:33:58;5.00;;;2.50;;
16820;SDS011;8527;49.740;6.604;2023-05-07T09:38:58;5.28;;;2.55;;
16820;SDS011;8527;49.740;6.604;2023-05-07T09:43:57;2.80;;;2.10;;
16820;SDS011;8527;49.740;6.604;2023-05-07T09:49:02;2.38;;;2.17;;
16820;SDS011;8527;49.740;6.604;2023-05-07T09:54:06;5.55;;;2.22;;
16820;SDS011;8527;49.740;6.604;2023-05-07T09:59:22;2.85;;;2.20;;
16820;SDS011;8527;49.740;6.604;2023-05-07T10:04:24;3.53;;;2.42;;
16820;SDS011;8527;49.740;6.604;2023-05-07T10:09:26;2.42;;;2.22;;
16820;SDS011;8527;49.740;6.604;2023-05-07T10:14:28;6.50;;;2.47;;
16820;SDS011;8527;49.740;6.604;2023-05-07T10:19:32;4.82;;;2.28;;
16820;SDS011;8527;49.740;6.604;2023-05-07T10:24:32;2.92;;;2.30;;
16820;SDS011;8527;49.740;6.604;2023-05-07T10:29:33;2.63;;;2.10;;
16820;SDS011;8527;49.740;6.604;2023-05-07T10:34:40;3.92;;;2.03;;
16820;SDS011;8527;49.740;6.604;2023-05-07T10:39:43;2.13;;;1.95;;
16820;SDS011;8527;49.740;6.604;2023-05-07T10:44:44;4.45;;;2.10;;
16820;SDS011;8527;49.740;6.604;2023-05-07T10:55:23;2.80;;;2.15;;
16820;SDS011;8527;49.740;6.604;2023-05-07T11:05:39;5.15;;;2.40;;
16820;SDS011;8527;49.740;6.604;2023-05-07T11:10:53;2.25;;;2.05;;
16820;SDS011;8527;49.740;6.604;2023-05-07T11:15:53;3.40;;;2.38;;
16820;SDS011;8527;49.740;6.604;2023-05-07T11:20:55;5.93;;;2.38;;
16820;SDS011;8527;49.740;6.604;2023-05-07T11:26:00;2.47;;;2.00;;
16820;SDS011;8527;49.740;6.604;2023-05-07T11:31:04;4.22;;;2.35;;
16820;SDS011;8527;49.740;6.604;2023-05-07T11:36:03;3.08;;;2.22;;
16820;SDS011;8527;49.740;6.604;2023-05-07T11:41:05;4.30;;;2.60;;
16820;SDS011;8527;49.740;6.604;2023-05-07T11:46:08;5.30;;;2.65;;
16820;SDS011;8527;49.740;6.604;2023-05-07T11:51:09;3.33;;;2.30;;
16820;SDS011;8527;49.740;6.604;2023-05-07T11:56:12;5.82;;;2.00;;
16820;SDS011;8527;49.740;6.604;2023-05-07T12:01:14;4.25;;;2.40;;
16820;SDS011;8527;49.740;6.604;2023-05-07T12:06:14;3.10;;;2.00;;
16820;SDS011;8527;49.740;6.604;2023-05-07T12:11:22;2.50;;;2.15;;
16820;SDS011;8527;49.740;6.604;2023-05-07T12:16:22;5.80;;;2.75;;
16820;SDS011;8527;49.740;6.604;2023-05-07T12:21:21;4.40;;;2.20;;
16820;SDS011;8527;49.740;6.604;2023-05-07T12:26:24;2.20;;;2.00;;
16820;SDS011;8527;49.740;6.604;2023-05-07T12:31:22;2.47;;;2.22;;
16820;SDS011;8527;49.740;6.604;2023-05-07T12:36:23;3.30;;;2.10;;
16820;SDS011;8527;49.740;6.604;2023-05-07T12:41:24;4.80;;;2.10;;
16820;SDS011;8527;49.740;6.604;2023-05-07T12:46:24;2.33;;;1.85;;
16820;SDS011;8527;49.740;6.604;2023-05-07T12:51:25;4.53;;;2.15;;
16820;SDS011;8527;49.740;6.604;2023-05-07T12:56:28;3.58;;;2.30;;
16820;SDS011;8527;49.740;6.604;2023-05-07T13:01:28;3.55;;;2.35;;
16820;SDS011;8527;49.740;6.604;2023-05-07T13:06:27;5.13;;;2.45;;
16820;SDS011;8527;49.740;6.604;2023-05-07T13:11:30;2.92;;;2.22;;
16820;SDS011;8527;49.740;6.604;2023-05-07T13:16:29;4.05;;;2.30;;
16820;SDS011;8527;49.740;6.604;2023-05-07T13:21:30;2.30;;;2.10;;
16820;SDS011;8527;49.740;6.604;2023-05-07T13:26:32;2.85;;;2.13;;
16820;SDS011;8527;49.740;6.604;2023-05-07T13:31:32;2.72;;;2.20;;
16820;SDS011;8527;49.740;6.604;2023-05-07T13:36:31;5.00;;;2.10;;
16820;SDS011;8527;49.740;6.604;2023-05-07T13:41:34;6.82;;;2.08;;
16820;SDS011;8527;49.740;6.604;2023-05-07T13:46:33;2.13;;;2.00;;
16820;SDS011;8527;49.740;6.604;2023-05-07T13:51:31;5.45;;;2.30;;
16820;SDS011;8527;49.740;6.604;2023-05-07T13:56:29;4.22;;;2.25;;
16820;SDS011;8527;49.740;6.604;2023-05-07T14:01:31;2.40;;;2.20;;
16820;SDS011;8527;49.740;6.604;2023-05-07T14:06:32;2.28;;;2.05;;
16820;SDS011;8527;49.740;6.604;2023-05-07T14:11:33;4.20;;;2.25;;
16820;SDS011;8527;49.740;6.604;2023-05-07T14:16:34;5.05;;;2.70;;
16820;SDS011;8527;49.740;6.604;2023-05-07T14:21:33;3.13;;;2.00;;
16820;SDS011;8527;49.740;6.604;2023-05-07T14:26:32;3.40;;;2.15;;
16820;SDS011;8527;49.740;6.604;2023-05-07T14:31:31;6.78;;;2.63;;
16820;SDS011;8527;49.740;6.604;2023-05-07T14:36:33;2.47;;;2.28;;
16820;SDS011;8527;49.740;6.604;2023-05-07T14:41:32;2.20;;;2.10;;
16820;SDS011;8527;49.740;6.604;2023-05-07T14:46:34;3.28;;;2.40;;
16820;SDS011;8527;49.740;6.604;2023-05-07T14:51:35;3.10;;;2.60;;
16820;SDS011;8527;49.740;6.604;2023-05-07T14:56:36;3.47;;;2.40;;
16820;SDS011;8527;49.740;6.604;2023-05-07T15:01:34;2.58;;;2.38;;
16820;SDS011;8527;49.740;6.604;2023-05-07T15:06:38;3.13;;;2.50;;
16820;SDS011;8527;49.740;6.604;2023-05-07T15:11:36;4.53;;;2.50;;
16820;SDS011;8527;49.740;6.604;2023-05-07T15:16:34;5.35;;;2.50;;
16820;SDS011;8527;49.740;6.604;2023-05-07T15:21:33;3.67;;;2.10;;
16820;SDS011;8527;49.740;6.604;2023-05-07T15:26:36;5.65;;;2.60;;
16820;SDS011;8527;49.740;6.604;2023-05-07T15:31:35;4.78;;;2.25;;
16820;SDS011;8527;49.740;6.604;2023-05-07T15:36:36;5.00;;;2.17;;
16820;SDS011;8527;49.740;6.604;2023-05-07T15:41:37;3.90;;;2.55;;
16820;SDS011;8527;49.740;6.604;2023-05-07T15:46:35;3.30;;;2.40;;
16820;SDS011;8527;49.740;6.604;2023-05-07T15:51:36;2.97;;;2.65;;
16820;SDS011;8527;49.740;6.604;2023-05-07T15:56:37;4.55;;;2.70;;
16820;SDS011;8527;49.740;6.604;2023-05-07T16:01:35;5.40;;;2.40;;
16820;SDS011;8527;49.740;6.604;2023-05-07T16:06:35;4.07;;;2.58;;
16820;SDS011;8527;49.740;6.604;2023-05-07T16:11:34;4.30;;;2.70;;
16820;SDS011;8527;49.740;6.604;2023-05-07T16:16:37;6.35;;;3.63;;
16820;SDS011;8527;49.740;6.604;2023-05-07T16:21:36;6.30;;;2.90;;
16820;SDS011;8527;49.740;6.604;2023-05-07T16:26:37;5.50;;;2.92;;
16820;SDS011;8527;49.740;6.604;2023-05-07T16:31:35;3.88;;;2.90;;
16820;SDS011;8527;49.740;6.604;2023-05-07T16:36:34;3.83;;;2.83;;
16820;SDS011;8527;49.740;6.604;2023-05-07T16:41:38;3.42;;;2.70;;
16820;SDS011;8527;49.740;6.604;2023-05-07T16:46:36;5.03;;;2.85;;
16820;SDS011;8527;49.740;6.604;2023-05-07T16:51:37;4.47;;;2.80;;
16820;SDS011;8527;49.740;6.604;2023-05-07T16:56:39;3.53;;;2.95;;
16820;SDS011;8527;49.740;6.604;2023-05-07T17:01:41;3.30;;;2.40;;
16820;SDS011;8527;49.740;6.604;2023-05-07T17:06:40;3.30;;;2.33;;
16820;SDS011;8527;49.740;6.604;2023-05-07T17:11:41;4.57;;;2.28;;
16820;SDS011;8527;49.740;6.604;2023-05-07T17:16:40;3.67;;;2.30;;
16820;SDS011;8527;49.740;6.604;2023-05-07T17:21:38;4.00;;;2.17;;
16820;SDS011;8527;49.740;6.604;2023-05-07T17:26:37;3.00;;;1.90;;
16820;SDS011;8527;49.740;6.604;2023-05-07T17:31:39;3.92;;;2.00;;
16820;SDS011;8527;49.740;6.604;2023-05-07T17:36:38;7.55;;;2.47;;
16820;SDS011;8527;49.740;6.604;2023-05-07T17:41:36;3.08;;;2.20;;
16820;SDS011;8527;49.740;6.604;2023-05-07T17:46:34;4.03;;;2.53;;
16820;SDS011;8527;49.740;6.604;2023-05-07T17:51:35;5.35;;;2.10;;
16820;SDS011;8527;49.740;6.604;2023-05-07T17:56:36;5.38;;;1.90;;
16820;SDS011;8527;49.740;6.604;2023-05-07T18:01:34;2.00;;;1.80;;
16820;SDS011;8527;49.740;6.604;2023-05-07T18:06:35;5.18;;;2.28;;
16820;SDS011;8527;49.740;6.604;2023-05-07T18:11:36;2.60;;;1.98;;
16820;SDS011;8527;49.740;6.604;2023-05-07T18:16:34;3.78;;;1.98;;
16820;SDS011;8527;49.740;6.604;2023-05-07T18:21:32;3.70;;;2.50;;
16820;SDS011;8527;49.740;6.604;2023-05-07T18:26:33;5.28;;;2.40;;
16820;SDS011;8527;49.740;6.604;2023-05-07T18:31:32;2.88;;;2.40;;
16820;SDS011;8527;49.740;6.604;2023-05-07T18:36:30;3.83;;;2.53;;
16820;SDS011;8527;49.740;6.604;2023-05-07T18:41:33;3.38;;;2.63;;
16820;SDS011;8527;49.740;6.604;2023-05-07T18:46:35;6.88;;;3.00;;
16820;SDS011;8527;49.740;6.604;2023-05-07T18:51:33;5.53;;;3.00;;
16820;SDS011;8527;49.740;6.604;2023-05-07T18:56:34;6.13;;;3.30;;
16820;SDS011;8527;49.740;6.604;2023-05-07T19:01:33;8.43;;;3.25;;
16820;SDS011;8527;49.740;6.604;2023-05-07T19:06:31;5.28;;;3.20;;
16820;SDS011;8527;49.740;6.604;2023-05-07T19:11:30;3.50;;;2.95;;
16820;SDS011;8527;49.740;6.604;2023-05-07T19:16:31;5.97;;;2.95;;
16820;SDS011;8527;49.740;6.604;2023-05-07T19:21:29;4.65;;;2.90;;
16820;SDS011;8527;49.740;6.604;2023-05-07T19:26:28;4.97;;;3.08;;
16820;SDS011;8527;49.740;6.604;2023-05-07T19:31:26;7.50;;;3.15;;
16820;SDS011;8527;49.740;6.604;2023-05-07T19:36:27;5.72;;;3.65;;
16820;SDS011;8527;49.740;6.604;2023-05-07T19:41:28;3.95;;;3.28;;
16820;SDS011;8527;49.740;6.604;2023-05-07T19:46:26;6.68;;;3.30;;
16820;SDS011;8527;49.740;6.604;2023-05-07T19:51:27;5.53;;;3.20;;
16820;SDS011;8527;49.740;6.604;2023-05-07T19:56:29;3.63;;;2.88;;
16820;SDS011;8527;49.740;6.604;2023-05-07T20:01:28;3.45;;;2.78;;
16820;SDS011;8527;49.740;6.604;2023-05-07T20:06:29;7.88;;;2.90;;
16820;SDS011;8527;49.740;6.604;2023-05-07T20:11:27;4.18;;;2.78;;
16820;SDS011;8527;49.740;6.604;2023-05-07T20:16:26;2.72;;;2.50;;
16820;SDS011;8527;49.740;6.604;2023-05-07T20:21:24;3.33;;;2.50;;
16820;SDS011;8527;49.740;6.604;2023-05-07T20:26:26;3.70;;;2.63;;
16820;SDS011;8527;49.740;6.604;2023-05-07T20:31:24;2.97;;;2.05;;
16820;SDS011;8527;49.740;6.604;2023-05-07T20:36:23;4.13;;;2.30;;
16820;SDS011;8527;49.740;6.604;2023-05-07T20:41:22;3.42;;;2.40;;
16820;SDS011;8527;49.740;6.604;2023-05-07T20:46:24;4.07;;;2.60;;
16820;SDS011;8527;49.740;6.604;2023-05-07T20:51:23;3.75;;;2.47;;
16820;SDS011;8527;49.740;6.604;2023-05-07T20:56:22;6.38;;;2.45;;
16820;SDS011;8527;49.740;6.604;2023-05-07T21:01:28;3.65;;;2.38;;
16820;SDS011;8527;49.740;6.604;2023-05-07T21:06:26;3.53;;;2.38;;
16820;SDS011;8527;49.740;6.604;2023-05-07T21:11:26;3.42;;;2.60;;
16820;SDS011;8527;49.740;6.604;2023-05-07T21:16:24;4.53;;;3.10;;
16820;SDS011;8527;49.740;6.604;2023-05-07T21:21:25;3.38;;;2.50;;
16820;SDS011;8527;49.740;6.604;2023-05-07T21:26:23;6.03;;;2.75;;
16820;SDS011;8527;49.740;6.604;2023-05-07T21:31:24;7.43;;;3.08;;
16820;SDS011;8527;49.740;6.604;2023-05-07T21:36:33;3.03;;;2.65;;
16820;SDS011;8527;49.740;6.604;2023-05-07T21:41:31;2.78;;;2.58;;
16820;SDS011;8527;49.740;6.604;2023-05-07T21:46:30;4.93;;;2.53;;
16820;SDS011;8527;49.740;6.604;2023-05-07T21:51:34;4.68;;;2.97;;
16820;SDS011;8527;49.740;6.604;2023-05-07T21:56:35;2.45;;;2.25;;
16820;SDS011;8527;49.740;6.604;2023-05-07T22:01:34;4.55;;;2.53;;
16820;SDS011;8527;49.740;6.604;2023-05-07T22:06:35;3.30;;;2.47;;
16820;SDS011;8527;49.740;6.604;2023-05-07T22:11:34;3.63;;;2.53;;
16820;SDS011;8527;49.740;6.604;2023-05-07T22:16:32;3.15;;;2.70;;
16820;SDS011;8527;49.740;6.604;2023-05-07T22:21:30;3.67;;;3.00;;
16820;SDS011;8527;49.740;6.604;2023-05-07T22:26:32;4.57;;;2.83;;
16820;SDS011;8527;49.740;6.604;2023-05-07T22:31:30;2.97;;;2.65;;
16820;SDS011;8527;49.740;6.604;2023-05-07T22:36:28;3.10;;;2.90;;
16820;SDS011;8527;49.740;6.604;2023-05-07T22:41:27;3.13;;;2.60;;
16820;SDS011;8527;49.740;6.604;2023-05-07T22:46:28;7.68;;;2.60;;
16820;SDS011;8527;49.740;6.604;2023-05-07T22:51:27;4.40;;;2.40;;
16820;SDS011;8527;49.740;6.604;2023-05-07T22:56:25;3.72;;;2.55;;
16820;SDS011;8527;49.740;6.604;2023-05-07T23:01:26;6.53;;;2.70;;
16820;SDS011;8527;49.740;6.604;2023-05-07T23:06:29;2.80;;;2.45;;
16820;SDS011;8527;49.740;6.604;2023-05-07T23:11:28;4.40;;;2.80;;
16820;SDS011;8527;49.740;6.604;2023-05-07T23:16:29;2.67;;;2.47;;
16820;SDS011;8527;49.740;6.604;2023-05-07T23:21:27;4.00;;;2.33;;
16820;SDS011;8527;49.740;6.604;2023-05-07T23:26:26;2.88;;;2.20;;
16820;SDS011;8527;49.740;6.604;2023-05-07T23:31:25;3.47;;;2.33;;
16820;SDS011;8527;49.740;6.604;2023-05-07T23:36:26;3.28;;;2.45;;
16820;SDS011;8527;49.740;6.604;2023-05-07T23:41:26;2.58;;;2.33;;
16820;SDS011;8527;49.740;6.604;2023-05-07T23:46:25;2.78;;;2.35;;
16820;SDS011;8527;49.740;6.604;2023-05-07T23:51:26;3.60;;;2.30;;
16820;SDS011;8527;49.740;6.604;2023-05-07T23:56:25;4.90;;;2.80;;
